sensor_id;sensor_type;location;lat;lon;timestamp;temperature;humidity
49222;DHT22;35047;37.588;-122.048;2023-03-23T00:02:16;23.50;55.10
49222;DHT22;35047;37.588;-122.048;2023-03-23T00:04:43;23.40;55.40
49222;DHT22;35047;37.588;-122.048;2023-03-23T00:07:09;23.40;55.60
49222;DHT22;35047;37.588;-122.048;2023-03-23T00:09:38;23.30;54.80
49222;DHT22;35047;37.588;-122.048;2023-03-23T00:12:07;23.20;55.40
49222;DHT22;35047;37.588;-122.048;2023-03-23T00:14:34;23.10;55.90
49222;DHT22;35047;37.588;-122.048;2023-03-23T00:17:11;22.90;56.10
49222;DHT22;35047;37.588;-122.048;2023-03-23T00:19:40;22.90;56.90
49222;DHT22;35047;37.588;-122.048;2023-03-23T00:22:15;22.80;56.30
49222;DHT22;35047;37.588;-122.048;2023-03-23T00:24:43;22.70;55.90
49222;DHT22;35047;37.588;-122.048;2023-03-23T00:27:09;22.60;57.30
49222;DHT22;35047;37.588;-122.048;2023-03-23T00:29:38;22.40;58.10
49222;DHT22;35047;37.588;-122.048;2023-03-23T00:32:07;22.30;59.00
49222;DHT22;35047;37.588;-122.048;2023-03-23T00:34:40;22.10;59.90
49222;DHT22;35047;37.588;-122.048;2023-03-23T00:37:09;22.00;61.20
49222;DHT22;35047;37.588;-122.048;2023-03-23T00:39:37;22.00;62.00
49222;DHT22;35047;37.588;-122.048;2023-03-23T00:42:04;21.70;61.80
49222;DHT22;35047;37.588;-122.048;2023-03-23T00:44:32;21.80;63.90
49222;DHT22;35047;37.588;-122.048;2023-03-23T00:47:01;21.90;63.80
49222;DHT22;35047;37.588;-122.048;2023-03-23T00:49:30;21.90;64.50
49222;DHT22;35047;37.588;-122.048;2023-03-23T00:52:01;21.90;65.60
49222;DHT22;35047;37.588;-122.048;2023-03-23T00:54:28;22.00;65.30
49222;DHT22;35047;37.588;-122.048;2023-03-23T00:56:55;21.80;64.70
49222;DHT22;35047;37.588;-122.048;2023-03-23T00:59:22;21.70;65.10
49222;DHT22;35047;37.588;-122.048;2023-03-23T01:01:49;21.60;64.90
49222;DHT22;35047;37.588;-122.048;2023-03-23T01:04:16;21.50;64.60
49222;DHT22;35047;37.588;-122.048;2023-03-23T01:06:44;21.50;65.00
49222;DHT22;35047;37.588;-122.048;2023-03-23T01:09:13;21.40;65.00
49222;DHT22;35047;37.588;-122.048;2023-03-23T01:11:47;21.20;65.50
49222;DHT22;35047;37.588;-122.048;2023-03-23T01:14:15;21.00;65.30
49222;DHT22;35047;37.588;-122.048;2023-03-23T01:16:42;20.90;66.50
49222;DHT22;35047;37.588;-122.048;2023-03-23T01:19:09;20.90;66.50
49222;DHT22;35047;37.588;-122.048;2023-03-23T01:21:36;20.70;66.80
49222;DHT22;35047;37.588;-122.048;2023-03-23T01:24:03;20.70;66.90
49222;DHT22;35047;37.588;-122.048;2023-03-23T01:26:29;20.70;67.40
49222;DHT22;35047;37.588;-122.048;2023-03-23T01:28:56;20.50;67.00
49222;DHT22;35047;37.588;-122.048;2023-03-23T01:31:24;20.20;66.50
49222;DHT22;35047;37.588;-122.048;2023-03-23T01:33:51;20.00;67.40
49222;DHT22;35047;37.588;-122.048;2023-03-23T01:36:21;20.00;67.90
49222;DHT22;35047;37.588;-122.048;2023-03-23T01:38:49;20.00;68.10
49222;DHT22;35047;37.588;-122.048;2023-03-23T01:41:17;20.00;67.60
49222;DHT22;35047;37.588;-122.048;2023-03-23T01:44:06;20.00;67.10
49222;DHT22;35047;37.588;-122.048;2023-03-23T01:46:35;20.00;67.20
49222;DHT22;35047;37.588;-122.048;2023-03-23T01:49:27;20.00;67.40
49222;DHT22;35047;37.588;-122.048;2023-03-23T01:52:22;20.00;67.60
49222;DHT22;35047;37.588;-122.048;2023-03-23T01:54:52;19.90;68.40
49222;DHT22;35047;37.588;-122.048;2023-03-23T01:57:24;19.90;68.00
49222;DHT22;35047;37.588;-122.048;2023-03-23T01:59:57;19.90;67.40
49222;DHT22;35047;37.588;-122.048;2023-03-23T02:02:26;19.80;67.40
49222;DHT22;35047;37.588;-122.048;2023-03-23T02:04:59;19.70;67.40
49222;DHT22;35047;37.588;-122.048;2023-03-23T02:07:27;19.70;68.20
49222;DHT22;35047;37.588;-122.048;2023-03-23T02:09:54;19.70;67.80
49222;DHT22;35047;37.588;-122.048;2023-03-23T02:12:21;19.70;67.50
49222;DHT22;35047;37.588;-122.048;2023-03-23T02:14:48;19.70;67.40
49222;DHT22;35047;37.588;-122.048;2023-03-23T02:20:13;19.70;67.30
49222;DHT22;35047;37.588;-122.048;2023-03-23T02:41:39;19.20;68.80
49222;DHT22;35047;37.588;-122.048;2023-03-23T02:44:08;19.20;69.20
49222;DHT22;35047;37.588;-122.048;2023-03-23T02:46:35;19.20;69.20
49222;DHT22;35047;37.588;-122.048;2023-03-23T02:49:02;19.20;69.60
49222;DHT22;35047;37.588;-122.048;2023-03-23T02:51:29;19.20;70.00
49222;DHT22;35047;37.588;-122.048;2023-03-23T02:53:57;19.20;70.40
49222;DHT22;35047;37.588;-122.048;2023-03-23T02:56:25;19.10;70.40
49222;DHT22;35047;37.588;-122.048;2023-03-23T02:58:54;19.10;70.50
49222;DHT22;35047;37.588;-122.048;2023-03-23T03:04:01;18.90;71.20
49222;DHT22;35047;37.588;-122.048;2023-03-23T03:07:02;19.00;71.60
49222;DHT22;35047;37.588;-122.048;2023-03-23T03:12:34;19.00;71.60
49222;DHT22;35047;37.588;-122.048;2023-03-23T03:15:37;19.00;70.70
49222;DHT22;35047;37.588;-122.048;2023-03-23T03:20:50;19.00;69.90
49222;DHT22;35047;37.588;-122.048;2023-03-23T03:23:18;19.00;70.20
49222;DHT22;35047;37.588;-122.048;2023-03-23T03:25:46;19.10;70.60
49222;DHT22;35047;37.588;-122.048;2023-03-23T03:28:19;19.00;70.60
49222;DHT22;35047;37.588;-122.048;2023-03-23T03:30:56;19.00;70.50
49222;DHT22;35047;37.588;-122.048;2023-03-23T03:33:24;19.00;70.70
49222;DHT22;35047;37.588;-122.048;2023-03-23T03:35:58;19.00;70.90
49222;DHT22;35047;37.588;-122.048;2023-03-23T03:38:27;19.00;71.00
49222;DHT22;35047;37.588;-122.048;2023-03-23T03:40:55;18.90;71.10
49222;DHT22;35047;37.588;-122.048;2023-03-23T03:43:22;19.00;71.00
49222;DHT22;35047;37.588;-122.048;2023-03-23T03:45:48;18.90;71.30
49222;DHT22;35047;37.588;-122.048;2023-03-23T03:48:15;18.90;71.30
49222;DHT22;35047;37.588;-122.048;2023-03-23T03:50:41;18.90;71.50
49222;DHT22;35047;37.588;-122.048;2023-03-23T03:53:08;18.90;71.60
49222;DHT22;35047;37.588;-122.048;2023-03-23T03:55:35;18.80;71.70
49222;DHT22;35047;37.588;-122.048;2023-03-23T03:58:04;18.80;72.40
49222;DHT22;35047;37.588;-122.048;2023-03-23T04:00:31;18.80;73.20
49222;DHT22;35047;37.588;-122.048;2023-03-23T04:02:58;18.80;73.50
49222;DHT22;35047;37.588;-122.048;2023-03-23T04:05:26;18.80;73.70
49222;DHT22;35047;37.588;-122.048;2023-03-23T04:07:55;18.70;74.00
49222;DHT22;35047;37.588;-122.048;2023-03-23T04:10:28;18.60;74.30
49222;DHT22;35047;37.588;-122.048;2023-03-23T04:12:55;18.50;74.80
49222;DHT22;35047;37.588;-122.048;2023-03-23T04:15:22;18.50;75.40
49222;DHT22;35047;37.588;-122.048;2023-03-23T04:17:49;18.30;75.90
49222;DHT22;35047;37.588;-122.048;2023-03-23T04:20:16;18.40;75.90
49222;DHT22;35047;37.588;-122.048;2023-03-23T04:22:46;18.40;76.00
49222;DHT22;35047;37.588;-122.048;2023-03-23T04:25:18;18.40;76.80
49222;DHT22;35047;37.588;-122.048;2023-03-23T04:27:50;18.40;76.10
49222;DHT22;35047;37.588;-122.048;2023-03-23T04:30:22;18.40;76.00
49222;DHT22;35047;37.588;-122.048;2023-03-23T04:32:50;18.40;75.70
49222;DHT22;35047;37.588;-122.048;2023-03-23T04:35:19;18.40;76.10
49222;DHT22;35047;37.588;-122.048;2023-03-23T04:37:47;18.40;76.30
49222;DHT22;35047;37.588;-122.048;2023-03-23T04:40:14;18.40;76.30
49222;DHT22;35047;37.588;-122.048;2023-03-23T04:42:42;18.30;76.60
49222;DHT22;35047;37.588;-122.048;2023-03-23T04:45:20;18.00;76.30
49222;DHT22;35047;37.588;-122.048;2023-03-23T04:47:49;18.10;77.10
49222;DHT22;35047;37.588;-122.048;2023-03-23T04:50:27;18.00;77.60
49222;DHT22;35047;37.588;-122.048;2023-03-23T04:52:54;17.90;77.90
49222;DHT22;35047;37.588;-122.048;2023-03-23T04:55:25;17.90;77.30
49222;DHT22;35047;37.588;-122.048;2023-03-23T04:57:52;17.80;77.70
49222;DHT22;35047;37.588;-122.048;2023-03-23T05:00:19;17.90;77.40
49222;DHT22;35047;37.588;-122.048;2023-03-23T05:02:47;17.90;76.70
49222;DHT22;35047;37.588;-122.048;2023-03-23T05:05:19;17.90;77.10
49222;DHT22;35047;37.588;-122.048;2023-03-23T05:07:46;17.90;77.00
49222;DHT22;35047;37.588;-122.048;2023-03-23T05:10:13;17.90;77.40
49222;DHT22;35047;37.588;-122.048;2023-03-23T05:12:41;17.90;77.70
49222;DHT22;35047;37.588;-122.048;2023-03-23T05:15:09;17.80;77.40
49222;DHT22;35047;37.588;-122.048;2023-03-23T05:17:36;17.80;78.00
49222;DHT22;35047;37.588;-122.048;2023-03-23T05:20:04;17.80;78.00
49222;DHT22;35047;37.588;-122.048;2023-03-23T05:22:37;17.80;77.50
49222;DHT22;35047;37.588;-122.048;2023-03-23T05:25:05;17.80;78.00
49222;DHT22;35047;37.588;-122.048;2023-03-23T05:27:36;17.80;77.80
49222;DHT22;35047;37.588;-122.048;2023-03-23T05:30:03;17.80;77.80
49222;DHT22;35047;37.588;-122.048;2023-03-23T05:32:30;17.70;77.80
49222;DHT22;35047;37.588;-122.048;2023-03-23T05:34:58;17.70;77.80
49222;DHT22;35047;37.588;-122.048;2023-03-23T05:37:26;17.70;78.20
49222;DHT22;35047;37.588;-122.048;2023-03-23T05:39:54;17.60;78.80
49222;DHT22;35047;37.588;-122.048;2023-03-23T05:42:22;17.60;79.20
49222;DHT22;35047;37.588;-122.048;2023-03-23T05:44:49;17.60;78.30
49222;DHT22;35047;37.588;-122.048;2023-03-23T05:47:16;17.60;78.00
49222;DHT22;35047;37.588;-122.048;2023-03-23T05:49:43;17.60;78.40
49222;DHT22;35047;37.588;-122.048;2023-03-23T05:52:10;17.50;78.40
49222;DHT22;35047;37.588;-122.048;2023-03-23T05:54:37;17.50;79.00
49222;DHT22;35047;37.588;-122.048;2023-03-23T05:57:04;17.50;79.10
49222;DHT22;35047;37.588;-122.048;2023-03-23T05:59:31;17.40;78.40
49222;DHT22;35047;37.588;-122.048;2023-03-23T06:01:59;17.60;78.70
49222;DHT22;35047;37.588;-122.048;2023-03-23T06:04:26;17.60;78.60
49222;DHT22;35047;37.588;-122.048;2023-03-23T06:06:53;17.60;78.50
49222;DHT22;35047;37.588;-122.048;2023-03-23T06:09:20;17.60;78.30
49222;DHT22;35047;37.588;-122.048;2023-03-23T06:11:47;17.50;78.20
49222;DHT22;35047;37.588;-122.048;2023-03-23T06:14:13;17.40;78.60
49222;DHT22;35047;37.588;-122.048;2023-03-23T06:16:40;17.40;79.50
49222;DHT22;35047;37.588;-122.048;2023-03-23T06:19:06;17.40;79.50
49222;DHT22;35047;37.588;-122.048;2023-03-23T06:21:33;17.40;79.10
49222;DHT22;35047;37.588;-122.048;2023-03-23T06:24:00;17.40;79.60
49222;DHT22;35047;37.588;-122.048;2023-03-23T06:26:38;17.40;78.90
49222;DHT22;35047;37.588;-122.048;2023-03-23T06:29:06;17.40;79.00
49222;DHT22;35047;37.588;-122.048;2023-03-23T06:31:48;17.30;79.60
49222;DHT22;35047;37.588;-122.048;2023-03-23T06:34:15;17.30;79.40
49222;DHT22;35047;37.588;-122.048;2023-03-23T06:36:42;17.20;80.00
49222;DHT22;35047;37.588;-122.048;2023-03-23T06:39:11;17.30;80.20
49222;DHT22;35047;37.588;-122.048;2023-03-23T06:41:38;17.20;80.10
49222;DHT22;35047;37.588;-122.048;2023-03-23T06:44:06;17.10;79.50
49222;DHT22;35047;37.588;-122.048;2023-03-23T06:46:34;17.20;80.60
49222;DHT22;35047;37.588;-122.048;2023-03-23T06:49:01;17.30;80.30
49222;DHT22;35047;37.588;-122.048;2023-03-23T06:51:27;17.20;80.30
49222;DHT22;35047;37.588;-122.048;2023-03-23T06:53:54;17.30;80.60
49222;DHT22;35047;37.588;-122.048;2023-03-23T06:56:20;17.20;80.30
49222;DHT22;35047;37.588;-122.048;2023-03-23T06:58:47;17.30;79.90
49222;DHT22;35047;37.588;-122.048;2023-03-23T07:01:14;17.20;80.30
49222;DHT22;35047;37.588;-122.048;2023-03-23T07:03:41;17.20;80.50
49222;DHT22;35047;37.588;-122.048;2023-03-23T07:06:09;17.10;79.20
49222;DHT22;35047;37.588;-122.048;2023-03-23T07:08:36;17.10;80.60
49222;DHT22;35047;37.588;-122.048;2023-03-23T07:11:03;16.90;80.30
49222;DHT22;35047;37.588;-122.048;2023-03-23T07:13:30;17.00;81.00
49222;DHT22;35047;37.588;-122.048;2023-03-23T07:15:56;16.80;80.30
49222;DHT22;35047;37.588;-122.048;2023-03-23T07:18:23;16.80;81.40
49222;DHT22;35047;37.588;-122.048;2023-03-23T07:20:51;16.80;80.80
49222;DHT22;35047;37.588;-122.048;2023-03-23T07:23:19;16.90;81.00
49222;DHT22;35047;37.588;-122.048;2023-03-23T07:25:45;16.90;80.80
49222;DHT22;35047;37.588;-122.048;2023-03-23T07:28:14;16.90;80.60
49222;DHT22;35047;37.588;-122.048;2023-03-23T07:30:42;17.00;80.20
49222;DHT22;35047;37.588;-122.048;2023-03-23T07:33:09;16.90;80.70
49222;DHT22;35047;37.588;-122.048;2023-03-23T07:35:36;16.80;80.90
49222;DHT22;35047;37.588;-122.048;2023-03-23T07:38:03;16.90;81.10
49222;DHT22;35047;37.588;-122.048;2023-03-23T07:40:30;16.80;80.60
49222;DHT22;35047;37.588;-122.048;2023-03-23T07:43:00;16.70;80.60
49222;DHT22;35047;37.588;-122.048;2023-03-23T07:45:27;16.60;80.80
49222;DHT22;35047;37.588;-122.048;2023-03-23T07:47:54;16.60;81.60
49222;DHT22;35047;37.588;-122.048;2023-03-23T07:50:21;16.50;82.30
49222;DHT22;35047;37.588;-122.048;2023-03-23T07:52:50;16.60;81.90
49222;DHT22;35047;37.588;-122.048;2023-03-23T07:55:18;16.50;81.60
49222;DHT22;35047;37.588;-122.048;2023-03-23T07:57:46;16.50;81.40
49222;DHT22;35047;37.588;-122.048;2023-03-23T08:00:17;16.50;81.70
49222;DHT22;35047;37.588;-122.048;2023-03-23T08:02:52;16.40;81.80
49222;DHT22;35047;37.588;-122.048;2023-03-23T08:05:19;16.40;82.20
49222;DHT22;35047;37.588;-122.048;2023-03-23T08:07:47;16.30;82.30
49222;DHT22;35047;37.588;-122.048;2023-03-23T08:10:14;16.30;82.30
49222;DHT22;35047;37.588;-122.048;2023-03-23T08:12:43;16.30;82.90
49222;DHT22;35047;37.588;-122.048;2023-03-23T08:15:13;16.40;82.60
49222;DHT22;35047;37.588;-122.048;2023-03-23T08:17:41;16.20;82.60
49222;DHT22;35047;37.588;-122.048;2023-03-23T08:20:09;16.20;82.20
49222;DHT22;35047;37.588;-122.048;2023-03-23T08:22:41;16.20;83.00
49222;DHT22;35047;37.588;-122.048;2023-03-23T08:25:10;16.30;83.40
49222;DHT22;35047;37.588;-122.048;2023-03-23T08:27:37;16.30;83.30
49222;DHT22;35047;37.588;-122.048;2023-03-23T08:30:09;16.40;83.00
49222;DHT22;35047;37.588;-122.048;2023-03-23T08:32:37;16.40;83.10
49222;DHT22;35047;37.588;-122.048;2023-03-23T08:35:03;16.50;83.00
49222;DHT22;35047;37.588;-122.048;2023-03-23T08:37:30;16.60;82.70
49222;DHT22;35047;37.588;-122.048;2023-03-23T08:39:58;16.50;82.60
49222;DHT22;35047;37.588;-122.048;2023-03-23T08:42:25;16.40;82.50
49222;DHT22;35047;37.588;-122.048;2023-03-23T08:44:52;16.30;82.20
49222;DHT22;35047;37.588;-122.048;2023-03-23T08:47:19;16.40;82.60
49222;DHT22;35047;37.588;-122.048;2023-03-23T08:49:45;16.50;81.90
49222;DHT22;35047;37.588;-122.048;2023-03-23T08:52:12;16.50;82.10
49222;DHT22;35047;37.588;-122.048;2023-03-23T08:54:39;16.60;81.10
49222;DHT22;35047;37.588;-122.048;2023-03-23T08:57:06;16.70;80.90
49222;DHT22;35047;37.588;-122.048;2023-03-23T08:59:33;16.60;80.80
49222;DHT22;35047;37.588;-122.048;2023-03-23T09:01:59;16.60;81.00
49222;DHT22;35047;37.588;-122.048;2023-03-23T09:04:26;16.60;80.60
49222;DHT22;35047;37.588;-122.048;2023-03-23T09:06:56;16.60;80.30
49222;DHT22;35047;37.588;-122.048;2023-03-23T09:09:24;16.50;80.80
49222;DHT22;35047;37.588;-122.048;2023-03-23T09:11:50;16.50;81.20
49222;DHT22;35047;37.588;-122.048;2023-03-23T09:14:17;16.60;81.50
49222;DHT22;35047;37.588;-122.048;2023-03-23T09:16:43;16.60;81.10
49222;DHT22;35047;37.588;-122.048;2023-03-23T09:19:11;16.50;81.00
49222;DHT22;35047;37.588;-122.048;2023-03-23T09:21:38;16.40;81.60
49222;DHT22;35047;37.588;-122.048;2023-03-23T09:24:05;16.40;81.20
49222;DHT22;35047;37.588;-122.048;2023-03-23T09:26:32;16.40;81.50
49222;DHT22;35047;37.588;-122.048;2023-03-23T09:28:58;16.40;81.10
49222;DHT22;35047;37.588;-122.048;2023-03-23T09:31:25;16.40;81.10
49222;DHT22;35047;37.588;-122.048;2023-03-23T09:33:55;16.40;81.50
49222;DHT22;35047;37.588;-122.048;2023-03-23T09:36:25;16.40;81.20
49222;DHT22;35047;37.588;-122.048;2023-03-23T09:38:52;16.50;81.60
49222;DHT22;35047;37.588;-122.048;2023-03-23T09:47:06;16.50;81.00
49222;DHT22;35047;37.588;-122.048;2023-03-23T09:49:44;16.40;80.80
49222;DHT22;35047;37.588;-122.048;2023-03-23T09:52:15;16.50;81.30
49222;DHT22;35047;37.588;-122.048;2023-03-23T09:54:44;16.40;80.80
49222;DHT22;35047;37.588;-122.048;2023-03-23T10:05:34;16.30;80.00
49222;DHT22;35047;37.588;-122.048;2023-03-23T10:08:05;16.30;79.60
49222;DHT22;35047;37.588;-122.048;2023-03-23T10:16:11;16.30;79.10
49222;DHT22;35047;37.588;-122.048;2023-03-23T10:21:27;16.30;79.10
49222;DHT22;35047;37.588;-122.048;2023-03-23T10:24:00;16.30;78.30
49222;DHT22;35047;37.588;-122.048;2023-03-23T10:29:24;16.30;78.00
49222;DHT22;35047;37.588;-122.048;2023-03-23T10:32:11;16.30;77.80
49222;DHT22;35047;37.588;-122.048;2023-03-23T10:34:53;16.20;77.70
49222;DHT22;35047;37.588;-122.048;2023-03-23T10:37:36;16.30;78.00
49222;DHT22;35047;37.588;-122.048;2023-03-23T10:40:06;16.20;78.50
49222;DHT22;35047;37.588;-122.048;2023-03-23T10:42:38;16.20;77.90
49222;DHT22;35047;37.588;-122.048;2023-03-23T10:45:31;16.20;78.10
49222;DHT22;35047;37.588;-122.048;2023-03-23T10:48:21;16.10;78.60
49222;DHT22;35047;37.588;-122.048;2023-03-23T10:50:54;16.10;78.80
49222;DHT22;35047;37.588;-122.048;2023-03-23T10:53:29;16.00;78.70
49222;DHT22;35047;37.588;-122.048;2023-03-23T10:55:58;15.90;78.90
49222;DHT22;35047;37.588;-122.048;2023-03-23T10:58:29;16.00;79.00
49222;DHT22;35047;37.588;-122.048;2023-03-23T11:00:59;16.10;79.10
49222;DHT22;35047;37.588;-122.048;2023-03-23T11:03:42;16.00;78.90
49222;DHT22;35047;37.588;-122.048;2023-03-23T11:06:17;16.10;78.60
49222;DHT22;35047;37.588;-122.048;2023-03-23T11:11:30;16.00;78.60
49222;DHT22;35047;37.588;-122.048;2023-03-23T11:14:02;16.00;78.90
49222;DHT22;35047;37.588;-122.048;2023-03-23T11:16:34;16.10;78.40
49222;DHT22;35047;37.588;-122.048;2023-03-23T11:19:13;16.00;78.40
49222;DHT22;35047;37.588;-122.048;2023-03-23T11:21:45;16.00;78.40
49222;DHT22;35047;37.588;-122.048;2023-03-23T11:24:12;16.00;78.40
49222;DHT22;35047;37.588;-122.048;2023-03-23T11:26:38;15.90;78.90
49222;DHT22;35047;37.588;-122.048;2023-03-23T11:31:48;15.90;79.50
49222;DHT22;35047;37.588;-122.048;2023-03-23T11:39:58;15.70;82.50
49222;DHT22;35047;37.588;-122.048;2023-03-23T11:42:36;15.60;83.20
49222;DHT22;35047;37.588;-122.048;2023-03-23T11:45:32;15.70;83.10
49222;DHT22;35047;37.588;-122.048;2023-03-23T11:51:38;15.50;83.20
49222;DHT22;35047;37.588;-122.048;2023-03-23T11:54:36;15.50;83.60
49222;DHT22;35047;37.588;-122.048;2023-03-23T11:57:08;15.40;84.00
49222;DHT22;35047;37.588;-122.048;2023-03-23T11:59:38;15.40;83.20
49222;DHT22;35047;37.588;-122.048;2023-03-23T12:08:09;15.40;82.20
49222;DHT22;35047;37.588;-122.048;2023-03-23T12:10:54;15.30;82.50
49222;DHT22;35047;37.588;-122.048;2023-03-23T12:21:30;15.10;81.90
49222;DHT22;35047;37.588;-122.048;2023-03-23T12:24:21;15.00;82.30
49222;DHT22;35047;37.588;-122.048;2023-03-23T12:35:05;15.10;81.70
49222;DHT22;35047;37.588;-122.048;2023-03-23T12:40:12;15.10;81.40
49222;DHT22;35047;37.588;-122.048;2023-03-23T12:48:39;15.20;79.50
49222;DHT22;35047;37.588;-122.048;2023-03-23T12:51:26;15.20;78.70
49222;DHT22;35047;37.588;-122.048;2023-03-23T12:54:15;15.20;79.20
49222;DHT22;35047;37.588;-122.048;2023-03-23T13:02:36;15.00;77.70
49222;DHT22;35047;37.588;-122.048;2023-03-23T13:05:09;15.10;77.80
49222;DHT22;35047;37.588;-122.048;2023-03-23T13:07:46;15.00;77.40
49222;DHT22;35047;37.588;-122.048;2023-03-23T13:12:48;15.10;78.20
49222;DHT22;35047;37.588;-122.048;2023-03-23T13:18:23;15.10;77.50
49222;DHT22;35047;37.588;-122.048;2023-03-23T13:23:40;15.10;77.80
49222;DHT22;35047;37.588;-122.048;2023-03-23T13:26:09;15.10;77.80
49222;DHT22;35047;37.588;-122.048;2023-03-23T13:31:21;15.00;78.00
49222;DHT22;35047;37.588;-122.048;2023-03-23T13:33:53;15.00;78.20
49222;DHT22;35047;37.588;-122.048;2023-03-23T13:36:37;15.10;78.30
49222;DHT22;35047;37.588;-122.048;2023-03-23T13:39:06;15.10;77.90
49222;DHT22;35047;37.588;-122.048;2023-03-23T13:44:41;15.20;77.60
49222;DHT22;35047;37.588;-122.048;2023-03-23T13:49:52;15.20;77.50
49222;DHT22;35047;37.588;-122.048;2023-03-23T13:52:35;15.10;77.80
49222;DHT22;35047;37.588;-122.048;2023-03-23T14:05:51;15.30;78.90
49222;DHT22;35047;37.588;-122.048;2023-03-23T14:10:58;15.20;77.70
49222;DHT22;35047;37.588;-122.048;2023-03-23T14:16:13;15.30;78.30
49222;DHT22;35047;37.588;-122.048;2023-03-23T14:18:41;15.20;78.10
49222;DHT22;35047;37.588;-122.048;2023-03-23T14:21:32;15.30;79.20
49222;DHT22;35047;37.588;-122.048;2023-03-23T14:24:17;15.30;79.00
49222;DHT22;35047;37.588;-122.048;2023-03-23T14:26:45;15.30;78.90
49222;DHT22;35047;37.588;-122.048;2023-03-23T14:29:13;15.20;78.50
49222;DHT22;35047;37.588;-122.048;2023-03-23T14:31:40;15.30;77.20
49222;DHT22;35047;37.588;-122.048;2023-03-23T14:34:17;15.30;77.70
49222;DHT22;35047;37.588;-122.048;2023-03-23T14:36:44;15.20;77.30
49222;DHT22;35047;37.588;-122.048;2023-03-23T14:39:28;15.20;77.70
49222;DHT22;35047;37.588;-122.048;2023-03-23T14:42:03;15.20;77.20
49222;DHT22;35047;37.588;-122.048;2023-03-23T14:44:37;15.20;77.50
49222;DHT22;35047;37.588;-122.048;2023-03-23T14:47:10;15.20;78.20
49222;DHT22;35047;37.588;-122.048;2023-03-23T14:49:39;15.10;77.70
49222;DHT22;35047;37.588;-122.048;2023-03-23T14:52:14;15.10;77.40
49222;DHT22;35047;37.588;-122.048;2023-03-23T14:54:41;15.10;76.60
49222;DHT22;35047;37.588;-122.048;2023-03-23T14:57:15;15.00;76.70
49222;DHT22;35047;37.588;-122.048;2023-03-23T14:59:43;15.00;77.10
49222;DHT22;35047;37.588;-122.048;2023-03-23T15:02:35;15.00;76.70
49222;DHT22;35047;37.588;-122.048;2023-03-23T15:05:31;15.00;76.30
49222;DHT22;35047;37.588;-122.048;2023-03-23T15:08:01;15.00;76.50
49222;DHT22;35047;37.588;-122.048;2023-03-23T15:10:29;15.00;76.60
49222;DHT22;35047;37.588;-122.048;2023-03-23T15:12:56;15.00;77.00
49222;DHT22;35047;37.588;-122.048;2023-03-23T15:15:31;15.00;77.80
49222;DHT22;35047;37.588;-122.048;2023-03-23T15:17:59;15.00;78.10
49222;DHT22;35047;37.588;-122.048;2023-03-23T15:22:56;15.10;78.10
49222;DHT22;35047;37.588;-122.048;2023-03-23T15:25:30;15.00;77.90
49222;DHT22;35047;37.588;-122.048;2023-03-23T15:28:18;15.10;77.90
49222;DHT22;35047;37.588;-122.048;2023-03-23T15:30:50;15.10;77.10
49222;DHT22;35047;37.588;-122.048;2023-03-23T15:33:16;15.10;76.80
49222;DHT22;35047;37.588;-122.048;2023-03-23T15:35:49;15.10;75.80
49222;DHT22;35047;37.588;-122.048;2023-03-23T15:38:30;15.10;75.60
49222;DHT22;35047;37.588;-122.048;2023-03-23T15:40:59;15.00;75.60
49222;DHT22;35047;37.588;-122.048;2023-03-23T15:43:30;15.10;76.70
49222;DHT22;35047;37.588;-122.048;2023-03-23T15:51:18;15.20;76.30
49222;DHT22;35047;37.588;-122.048;2023-03-23T15:53:45;15.30;75.80
49222;DHT22;35047;37.588;-122.048;2023-03-23T15:56:13;15.30;75.00
49222;DHT22;35047;37.588;-122.048;2023-03-23T15:58:40;15.40;73.80
49222;DHT22;35047;37.588;-122.048;2023-03-23T16:01:15;15.40;73.80
49222;DHT22;35047;37.588;-122.048;2023-03-23T16:03:50;15.30;74.20
49222;DHT22;35047;37.588;-122.048;2023-03-23T16:06:19;15.30;75.50
49222;DHT22;35047;37.588;-122.048;2023-03-23T16:08:47;15.30;74.70
49222;DHT22;35047;37.588;-122.048;2023-03-23T16:11:16;15.40;75.30
49222;DHT22;35047;37.588;-122.048;2023-03-23T16:13:42;15.40;75.50
49222;DHT22;35047;37.588;-122.048;2023-03-23T16:16:22;15.50;75.20
49222;DHT22;35047;37.588;-122.048;2023-03-23T16:18:49;15.60;74.70
49222;DHT22;35047;37.588;-122.048;2023-03-23T16:21:15;15.70;74.40
49222;DHT22;35047;37.588;-122.048;2023-03-23T16:23:42;15.80;73.80
49222;DHT22;35047;37.588;-122.048;2023-03-23T16:26:12;15.80;73.40
49222;DHT22;35047;37.588;-122.048;2023-03-23T16:28:40;15.90;73.70
49222;DHT22;35047;37.588;-122.048;2023-03-23T16:31:06;16.10;71.90
49222;DHT22;35047;37.588;-122.048;2023-03-23T16:33:33;16.20;71.70
49222;DHT22;35047;37.588;-122.048;2023-03-23T16:35:59;16.20;73.30
49222;DHT22;35047;37.588;-122.048;2023-03-23T16:38:26;16.30;72.30
49222;DHT22;35047;37.588;-122.048;2023-03-23T16:40:52;16.30;71.90
49222;DHT22;35047;37.588;-122.048;2023-03-23T16:43:20;16.30;71.30
49222;DHT22;35047;37.588;-122.048;2023-03-23T16:45:46;16.30;70.50
49222;DHT22;35047;37.588;-122.048;2023-03-23T16:48:14;16.40;70.40
49222;DHT22;35047;37.588;-122.048;2023-03-23T16:50:43;16.40;71.10
49222;DHT22;35047;37.588;-122.048;2023-03-23T16:53:10;16.40;70.80
49222;DHT22;35047;37.588;-122.048;2023-03-23T16:55:37;16.40;70.00
49222;DHT22;35047;37.588;-122.048;2023-03-23T16:58:04;16.40;71.30
49222;DHT22;35047;37.588;-122.048;2023-03-23T17:00:31;16.50;70.70
49222;DHT22;35047;37.588;-122.048;2023-03-23T17:02:58;16.50;70.70
49222;DHT22;35047;37.588;-122.048;2023-03-23T17:05:27;16.50;71.10
49222;DHT22;35047;37.588;-122.048;2023-03-23T17:07:55;16.50;71.30
49222;DHT22;35047;37.588;-122.048;2023-03-23T17:10:24;16.60;71.10
49222;DHT22;35047;37.588;-122.048;2023-03-23T17:12:53;16.60;70.50
49222;DHT22;35047;37.588;-122.048;2023-03-23T17:15:19;16.50;70.40
49222;DHT22;35047;37.588;-122.048;2023-03-23T17:17:46;16.50;70.10
49222;DHT22;35047;37.588;-122.048;2023-03-23T17:20:13;16.60;71.70
49222;DHT22;35047;37.588;-122.048;2023-03-23T17:22:39;16.60;70.50
49222;DHT22;35047;37.588;-122.048;2023-03-23T17:25:07;16.70;71.10
49222;DHT22;35047;37.588;-122.048;2023-03-23T17:27:33;16.90;70.30
49222;DHT22;35047;37.588;-122.048;2023-03-23T17:30:00;17.00;70.30
49222;DHT22;35047;37.588;-122.048;2023-03-23T17:32:27;17.00;70.20
49222;DHT22;35047;37.588;-122.048;2023-03-23T17:34:53;17.00;69.00